Bloom City, Wisconsin
Current Conditions -  °F | °C
As of 7:55 PM on Saturday 25 Oct 2014 (Local Time) from KC35 Reporting Station
Clear Clear  
Wind Chill: 53°   Ceiling: Unl
Heat Index: 53°   Visibility: 10mi
Dew Point: 30°   Wind: 6mph
Humidity: 42%   Direction: 270°W
Pressure: 29.98"   Gusts: NA
Location:  43.6121°N, 90.3998°W
Report Text: KC35 260055Z AUTO 27005KT 10SM CLR 11/M01 A2998 RMK AO2 T01141011
Loading
Personal Weather Stations






























Interactive Weather Map
Tropical Storm Tracking
New forecast layout! Learn more

10-Day Weather Forecast

Advertisements
Track Severe Weather on mobile